Time;durP1;ratioP1;P1;durP2;ratioP2;P2;SDS_P1;SDS_P2;PMS_P1;PMS_P2;Temp;Humidity;BMP_temperature;BMP_pressure;BME280_temperature;BME280_humidity;BME280_pressure;Samples;Min_cycle;Max_cycle;Signal;HPM_P1;HPM_P2
2021/04/03 00:00:24;;;;;;;3.95;3.28;;;6.60;80.20;;;;;;4996075;28;20471;-55
2021/04/03 00:02:51;;;;;;;4.15;3.25;;;6.60;80.30;;;;;;4997519;28;20018;-53
2021/04/03 00:05:17;;;;;;;6.03;3.10;;;6.60;80.20;;;;;;4998770;28;20034;-55
2021/04/03 00:07:43;;;;;;;3.20;2.90;;;6.60;80.20;;;;;;4995591;28;20041;-53
2021/04/03 00:10:15;;;;;;;3.40;3.10;;;6.50;80.10;;;;;;5003502;28;20014;-56
2021/04/03 00:12:41;;;;;;;3.35;3.05;;;6.60;80.20;;;;;;5000280;28;20030;-55
2021/04/03 00:15:08;;;;;;;3.33;2.90;;;6.50;79.90;;;;;;4999004;28;20034;-53
2021/04/03 00:17:34;;;;;;;3.40;2.85;;;6.60;80.10;;;;;;5002684;28;20050;-53
2021/04/03 00:19:59;;;;;;;4.00;3.13;;;6.50;80.00;;;;;;4994508;28;20394;-52
2021/04/03 00:22:26;;;;;;;3.42;3.13;;;6.60;80.00;;;;;;4992999;28;20030;-53
2021/04/03 00:24:51;;;;;;;3.85;3.08;;;6.50;80.10;;;;;;5003023;28;20370;-57
2021/04/03 00:27:17;;;;;;;4.00;3.38;;;6.60;80.00;;;;;;4994831;28;20031;-56
2021/04/03 00:29:43;;;;;;;3.47;3.17;;;6.50;80.10;;;;;;4995301;28;20026;-54
2021/04/03 00:32:09;;;;;;;4.00;3.15;;;6.50;80.10;;;;;;4996527;28;20033;-55
2021/04/03 00:34:35;;;;;;;3.78;3.03;;;6.50;80.10;;;;;;4991188;28;20065;-54
2021/04/03 00:37:01;;;;;;;4.35;3.53;;;6.50;80.10;;;;;;4998781;28;20478;-56
2021/04/03 00:39:27;;;;;;;4.18;3.53;;;6.50;80.00;;;;;;4996399;28;20026;-54
2021/04/03 00:41:53;;;;;;;3.75;3.15;;;6.50;80.10;;;;;;4999529;28;20037;-55
2021/04/03 00:44:19;;;;;;;3.40;2.92;;;6.50;80.00;;;;;;5002655;28;20022;-53
2021/04/03 00:46:45;;;;;;;3.88;3.40;;;6.50;80.00;;;;;;5000836;28;20031;-56
2021/04/03 00:49:10;;;;;;;3.88;3.40;;;6.50;80.00;;;;;;4998220;28;20042;-56
2021/04/03 00:51:36;;;;;;;3.65;3.08;;;6.50;80.00;;;;;;4992503;28;20177;-56
2021/04/03 00:54:03;;;;;;;5.03;3.30;;;6.50;80.10;;;;;;5000073;28;20072;-56
2021/04/03 00:56:28;;;;;;;3.40;3.10;;;6.50;80.10;;;;;;4994715;28;20027;-53
2021/04/03 00:58:54;;;;;;;3.83;3.15;;;6.50;80.10;;;;;;4993230;28;20363;-56
2021/04/03 01:01:20;;;;;;;3.10;2.80;;;6.50;80.10;;;;;;4998835;28;20041;-52
2021/04/03 01:03:46;;;;;;;3.60;3.03;;;6.50;80.00;;;;;;4996758;28;20042;-53
2021/04/03 01:06:12;;;;;;;3.17;2.88;;;6.50;80.00;;;;;;4990256;28;20022;-57
2021/04/03 01:08:38;;;;;;;3.30;3.00;;;6.50;80.10;;;;;;4991256;28;20077;-56
2021/04/03 01:11:04;;;;;;;4.22;3.15;;;6.50;79.90;;;;;;4995539;28;20027;-56
2021/04/03 01:13:42;;;;;;;3.70;3.10;;;6.50;79.70;;;;;;4994975;28;20034;-56
2021/04/03 01:16:10;;;;;;;3.50;3.13;;;6.60;79.80;;;;;;5002402;28;20030;-55
2021/04/03 01:18:43;;;;;;;3.20;2.90;;;6.50;79.90;;;;;;4998844;28;20061;-53
2021/04/03 01:21:22;;;;;;;3.03;2.80;;;6.60;79.90;;;;;;4993540;28;20046;-56
2021/04/03 01:24:12;;;;;;;3.90;3.22;;;6.50;79.80;;;;;;4992682;28;20026;-57
2021/04/03 01:26:46;;;;;;;3.90;3.20;;;6.60;80.50;;;;;;4991106;28;20030;-57
2021/04/03 01:29:33;;;;;;;3.13;2.65;;;6.60;79.90;;;;;;4996778;28;20029;-54
2021/04/03 01:32:04;;;;;;;2.92;2.72;;;6.60;79.70;;;;;;4992810;28;20033;-56
2021/04/03 01:34:33;;;;;;;3.50;3.17;;;6.60;79.60;;;;;;4994307;28;20031;-54
2021/04/03 01:37:05;;;;;;;4.05;3.50;;;6.60;79.80;;;;;;4994124;28;20532;-57
2021/04/03 01:39:35;;;;;;;3.28;2.95;;;6.60;79.60;;;;;;4994819;28;20018;-53
2021/04/03 01:42:05;;;;;;;4.68;3.70;;;6.60;79.80;;;;;;4994507;28;20034;-54
2021/04/03 01:44:34;;;;;;;3.38;3.05;;;6.60;79.80;;;;;;4995057;28;20042;-56
2021/04/03 01:47:01;;;;;;;4.15;3.13;;;6.60;79.70;;;;;;4999613;28;20022;-56
2021/04/03 01:49:27;;;;;;;3.75;3.35;;;6.70;80.40;;;;;;4994009;28;20041;-55
2021/04/03 01:51:53;;;;;;;4.00;3.10;;;6.70;79.70;;;;;;4998419;28;20054;-56
2021/04/03 01:54:23;;;;;;;3.92;3.28;;;6.70;79.60;;;;;;4997593;28;20046;-57
2021/04/03 01:56:52;;;;;;;3.90;3.40;;;6.70;79.60;;;;;;4997921;28;20027;-56
2021/04/03 01:59:18;;;;;;;3.40;3.10;;;6.70;79.50;;;;;;4999360;28;20030;-54
2021/04/03 02:01:45;;;;;;;4.55;3.22;;;6.70;79.70;;;;;;4997060;28;20022;-55
2021/04/03 02:04:13;;;;;;;5.00;3.50;;;6.80;79.80;;;;;;4998228;28;20026;-53
2021/04/03 02:06:46;;;;;;;5.20;3.95;;;6.80;79.80;;;;;;5000154;28;20478;-53
2021/04/03 02:09:14;;;;;;;4.68;3.72;;;6.80;80.30;;;;;;5000331;28;20026;-54
2021/04/03 02:11:45;;;;;;;4.10;3.65;;;6.80;79.70;;;;;;4995877;28;20061;-55
2021/04/03 02:14:11;;;;;;;4.25;3.60;;;6.90;79.60;;;;;;4998780;28;20110;-55
2021/04/03 02:16:39;;;;;;;4.30;3.47;;;6.90;79.40;;;;;;4997360;28;20046;-54
2021/04/03 02:19:07;;;;;;;4.40;4.00;;;6.90;79.60;;;;;;4997587;28;20395;-53
2021/04/03 02:21:33;;;;;;;3.70;3.30;;;6.90;79.50;;;;;;4998342;28;20042;-54
2021/04/03 02:24:00;;;;;;;4.70;3.47;;;7.00;79.50;;;;;;4994895;28;20026;-55
2021/04/03 02:26:32;;;;;;;3.78;3.40;;;7.00;79.50;;;;;;4997317;28;20054;-54
2021/04/03 02:28:58;;;;;;;;;;;7.00;79.30;;;;;;4997229;28;20450;-53
2021/04/03 02:31:32;;;;;;;4.13;3.45;;;7.00;79.30;;;;;;4997917;28;20262;-57
2021/04/03 02:33:58;;;;;;;5.45;3.63;;;7.00;79.30;;;;;;4994001;28;20034;-57
2021/04/03 02:36:24;;;;;;;4.50;3.80;;;7.10;79.40;;;;;;4997523;28;20026;-57
2021/04/03 02:38:50;;;;;;;4.43;3.88;;;7.10;79.30;;;;;;4996416;28;20027;-56
2021/04/03 02:41:40;;;;;;;4.60;3.80;;;7.10;79.10;;;;;;4999408;28;20026;-56
2021/04/03 02:44:18;;;;;;;6.22;3.90;;;7.20;79.00;;;;;;4996607;28;20023;-55
2021/04/03 02:47:01;;;;;;;4.55;3.92;;;7.20;79.20;;;;;;4997732;28;20038;-57
2021/04/03 02:49:34;;;;;;;6.47;4.38;;;7.20;79.00;;;;;;4993243;28;20054;-56
2021/04/03 02:52:03;;;;;;;6.00;4.53;;;7.20;78.90;;;;;;4996005;28;20066;-55
2021/04/03 02:54:29;;;;;;;6.28;4.43;;;7.20;79.00;;;;;;4997008;28;20070;-55
2021/04/03 02:56:57;;;;;;;5.90;4.30;;;7.20;78.90;;;;;;4997810;28;20026;-52
2021/04/03 02:59:28;;;;;;;5.82;4.78;;;7.20;78.70;;;;;;4996392;28;20087;-54
2021/04/03 03:01:57;;;;;;;5.97;4.22;;;7.30;78.80;;;;;;4997632;28;20359;-53
2021/04/03 03:04:24;;;;;;;5.50;4.10;;;7.30;78.80;;;;;;4997263;28;20026;-53
2021/04/03 03:06:51;;;;;;;4.85;3.88;;;7.30;78.80;;;;;;4996975;28;20030;-57
2021/04/03 03:09:19;;;;;;;5.28;4.05;;;7.30;78.60;;;;;;4999912;28;20022;-54
2021/04/03 03:11:48;;;;;;;5.28;4.47;;;7.30;78.60;;;;;;4993999;28;20364;-55
2021/04/03 03:14:15;;;;;;;5.28;4.25;;;7.30;78.30;;;;;;4997169;28;20026;-56
2021/04/03 03:16:44;;;;;;;5.10;4.30;;;7.30;78.30;;;;;;4997290;28;20035;-56
2021/04/03 03:19:12;;;;;;;5.07;4.28;;;7.30;78.10;;;;;;4998032;28;20010;-57
2021/04/03 03:21:38;;;;;;;5.68;4.13;;;7.40;78.10;;;;;;4997242;28;20477;-56
2021/04/03 03:24:06;;;;;;;5.68;4.43;;;7.40;78.10;;;;;;4991766;28;20080;-56
2021/04/03 03:26:33;;;;;;;4.30;3.83;;;7.40;78.10;;;;;;4995746;28;20531;-57
2021/04/03 03:29:00;;;;;;;5.07;4.25;;;7.40;78.00;;;;;;4993577;28;20065;-56
2021/04/03 03:31:26;;;;;;;5.30;4.30;;;7.40;78.00;;;;;;4993722;28;20053;-55
2021/04/03 03:33:51;;;;;;;5.60;4.65;;;7.40;77.90;;;;;;4993914;28;20058;-53
2021/04/03 03:36:17;;;;;;;4.45;3.95;;;7.40;77.60;;;;;;4993813;28;20026;-53
2021/04/03 03:38:43;;;;;;;4.80;4.22;;;7.40;77.90;;;;;;4994999;28;20022;-56
2021/04/03 03:41:09;;;;;;;6.75;4.70;;;7.40;77.90;;;;;;4997179;28;20025;-53
2021/04/03 03:43:35;;;;;;;7.07;4.82;;;7.40;77.80;;;;;;4997248;28;20022;-52
2021/04/03 03:46:06;;;;;;;4.90;4.35;;;7.30;78.00;;;;;;4996674;28;20382;-54
2021/04/03 03:48:33;;;;;;;5.53;4.38;;;7.30;78.00;;;;;;4995654;28;20026;-56
2021/04/03 03:50:59;;;;;;;5.18;4.05;;;7.30;78.00;;;;;;4993723;28;20080;-57
2021/04/03 03:53:25;;;;;;;5.45;4.55;;;7.30;78.10;;;;;;4997027;28;20452;-55
2021/04/03 03:55:50;;;;;;;5.55;4.55;;;7.30;78.10;;;;;;4995575;28;20118;-56
2021/04/03 03:58:16;;;;;;;6.35;4.82;;;7.30;78.10;;;;;;4992742;28;20025;-57
2021/04/03 04:00:41;;;;;;;5.32;4.57;;;7.40;78.20;;;;;;4994502;28;20025;-56
2021/04/03 04:03:07;;;;;;;6.03;4.65;;;7.40;78.30;;;;;;4997204;28;20023;-56
2021/04/03 04:05:33;;;;;;;6.25;4.75;;;7.40;78.30;;;;;;4996808;28;20061;-56
2021/04/03 04:08:01;;;;;;;5.60;4.30;;;7.50;78.30;;;;;;4994709;28;20046;-54
2021/04/03 04:10:27;;;;;;;7.20;4.38;;;7.50;78.30;;;;;;4993474;28;20105;-57
2021/04/03 04:12:53;;;;;;;5.95;4.30;;;7.60;78.30;;;;;;4993722;28;20441;-53
2021/04/03 04:15:18;;;;;;;5.47;4.40;;;7.60;78.30;;;;;;4997344;28;20065;-54
2021/04/03 04:17:44;;;;;;;7.65;4.93;;;7.70;78.10;;;;;;4994390;28;20041;-54
2021/04/03 04:20:10;;;;;;;6.50;4.88;;;7.80;78.20;;;;;;4995804;28;20019;-56
2021/04/03 04:22:36;;;;;;;6.53;5.13;;;7.90;78.30;;;;;;4994271;28;20137;-53
2021/04/03 04:25:02;;;;;;;7.57;5.72;;;8.00;78.70;;;;;;4993489;28;20099;-53
2021/04/03 04:27:28;;;;;;;8.30;5.88;;;8.10;78.70;;;;;;4996610;28;20029;-57
2021/04/03 04:29:54;;;;;;;8.63;6.55;;;8.20;79.20;;;;;;4995545;28;20038;-55
2021/04/03 04:32:20;;;;;;;8.00;5.88;;;8.20;78.20;;;;;;4995033;28;20049;-57
2021/04/03 04:34:49;;;;;;;8.68;6.82;;;8.30;77.90;;;;;;4992971;28;20030;-56
2021/04/03 04:37:15;;;;;;;9.20;7.38;;;8.40;77.80;;;;;;4996175;28;20434;-57
2021/04/03 04:39:47;;;;;;;8.85;7.60;;;8.50;78.10;;;;;;4994771;28;20038;-56
2021/04/03 04:42:12;;;;;;;;;;;8.70;78.50;;;;;;4995257;28;20026;-54
2021/04/03 04:44:38;;;;;;;10.68;7.85;;;8.70;78.00;;;;;;4994661;28;20751;-57
2021/04/03 04:47:04;;;;;;;9.30;7.90;;;9.00;79.50;;;;;;4995439;28;20026;-56
2021/04/03 04:49:29;;;;;;;10.75;8.65;;;9.30;78.80;;;;;;4993733;28;20022;-57
2021/04/03 04:51:55;;;;;;;11.55;9.07;;;9.50;77.60;;;;;;4995114;28;20050;-57
2021/04/03 04:54:21;;;;;;;11.82;9.43;;;9.80;78.10;;;;;;4994309;28;20030;-54
2021/04/03 04:56:46;;;;;;;11.95;8.98;;;10.30;77.50;;;;;;4994778;28;20454;-53
2021/04/03 04:59:12;;;;;;;12.00;8.73;;;10.80;75.70;;;;;;4994351;28;20025;-57
2021/04/03 05:01:37;;;;;;;11.38;9.07;;;11.10;74.30;;;;;;4994448;28;20393;-54
2021/04/03 05:04:03;;;;;;;12.25;9.23;;;11.30;73.70;;;;;;4995293;28;20411;-56
2021/04/03 05:06:29;;;;;;;11.75;9.35;;;11.60;73.30;;;;;;4994162;28;20109;-57
2021/04/03 05:08:55;;;;;;;11.55;8.75;;;12.00;72.50;;;;;;4994783;28;20026;-57
2021/04/03 05:11:20;;;;;;;10.18;8.40;;;12.30;71.60;;;;;;4991494;28;20042;-56
2021/04/03 05:13:46;;;;;;;13.32;9.77;;;12.70;71.00;;;;;;4991903;28;20100;-54
2021/04/03 05:16:11;;;;;;;10.05;7.97;;;12.90;68.80;;;;;;4992352;28;20086;-57
2021/04/03 05:18:40;;;;;;;11.50;8.77;;;13.00;68.50;;;;;;4991576;28;20478;-57
2021/04/03 05:21:06;;;;;;;9.57;8.40;;;13.20;68.60;;;;;;4994378;28;20049;-57
2021/04/03 05:23:31;;;;;;;10.63;8.10;;;13.60;68.20;;;;;;4993755;28;20514;-56
2021/04/03 05:25:57;;;;;;;10.07;7.93;;;14.00;67.10;;;;;;4992534;28;20105;-57
2021/04/03 05:28:23;;;;;;;10.32;8.23;;;14.40;66.10;;;;;;4991228;28;20029;-55
2021/04/03 05:30:48;;;;;;;9.57;8.32;;;14.70;64.70;;;;;;4992448;28;20026;-57
2021/04/03 05:33:14;;;;;;;10.52;8.70;;;14.80;63.40;;;;;;4990875;28;20480;-55
2021/04/03 05:35:40;;;;;;;10.75;8.13;;;14.80;63.00;;;;;;4991874;28;20042;-56
2021/04/03 05:38:05;;;;;;;11.05;8.77;;;14.90;62.80;;;;;;4988849;28;20125;-55
2021/04/03 05:40:32;;;;;;;9.55;8.15;;;15.00;62.50;;;;;;4989623;28;20030;-57
2021/04/03 05:43:01;;;;;;;8.95;7.68;;;15.00;62.30;;;;;;4990788;28;20478;-56
2021/04/03 05:45:28;;;;;;;9.45;7.85;;;15.10;62.20;;;;;;4989573;28;20037;-57
2021/04/03 05:47:54;;;;;;;10.63;8.02;;;15.10;60.60;;;;;;4991982;28;20022;-57
2021/04/03 05:50:20;;;;;;;10.43;7.38;;;14.80;59.90;;;;;;4992025;28;21052;-53
2021/04/03 05:52:46;;;;;;;10.70;7.43;;;14.50;60.80;;;;;;4991883;28;20106;-57
2021/04/03 05:55:12;;;;;;;9.05;7.00;;;14.30;60.10;;;;;;4992156;28;20029;-57
2021/04/03 05:57:38;;;;;;;8.32;6.82;;;13.90;59.90;;;;;;4990337;28;20117;-53
2021/04/03 06:00:06;;;;;;;10.15;7.65;;;13.30;60.20;;;;;;4991939;28;20109;-56
2021/04/03 06:02:37;;;;;;;9.30;7.20;;;12.90;61.10;;;;;;4992039;28;20025;-54
2021/04/03 06:05:08;;;;;;;9.20;7.07;;;12.80;62.20;;;;;;4991605;28;20360;-57
2021/04/03 06:07:34;;;;;;;9.25;7.10;;;12.60;61.80;;;;;;4992029;28;20030;-55
2021/04/03 06:10:01;;;;;;;9.77;7.15;;;12.40;62.00;;;;;;4991923;28;20022;-56
2021/04/03 06:12:45;;;;;;;9.55;7.57;;;12.30;62.50;;;;;;4990635;28;20078;-57
2021/04/03 06:15:14;;;;;;;9.32;7.57;;;12.00;63.10;;;;;;4990754;28;20107;-57
2021/04/03 06:17:40;;;;;;;8.88;7.55;;;11.80;63.90;;;;;;4990886;28;20030;-57
2021/04/03 06:20:06;;;;;;;8.80;6.97;;;11.60;64.50;;;;;;4991762;28;20026;-56
2021/04/03 06:22:47;;;;;;;8.65;7.20;;;11.50;64.70;;;;;;4990517;28;20021;-56
2021/04/03 06:25:13;;;;;;;10.57;7.82;;;11.40;65.00;;;;;;4991201;28;20030;-53
2021/04/03 06:27:39;;;;;;;9.90;7.80;;;11.20;65.70;;;;;;4988292;28;20030;-55
2021/04/03 06:30:15;;;;;;;8.15;6.63;;;11.20;65.90;;;;;;4990402;28;20085;-57
2021/04/03 06:32:43;;;;;;;8.70;6.03;;;11.10;65.60;;;;;;4991785;28;20450;-55
2021/04/03 06:35:09;;;;;;;7.72;5.97;;;11.00;65.50;;;;;;4994981;28;20374;-58
2021/04/03 06:37:37;;;;;;;9.40;7.10;;;11.00;65.40;;;;;;4995091;28;20056;-56
2021/04/03 06:40:09;;;;;;;7.45;5.88;;;10.90;65.50;;;;;;4994637;28;20113;-56
2021/04/03 06:42:36;;;;;;;8.13;5.78;;;10.90;65.30;;;;;;4991654;28;20024;-56
2021/04/03 06:45:22;;;;;;;8.90;6.22;;;10.80;65.50;;;;;;4994150;28;20143;-57
2021/04/03 06:47:49;;;;;;;6.57;5.15;;;10.80;65.30;;;;;;4993923;28;20030;-56
2021/04/03 06:50:16;;;;;;;7.80;5.82;;;10.80;65.50;;;;;;4994405;28;20058;-54
2021/04/03 06:52:42;;;;;;;6.10;4.97;;;10.70;65.60;;;;;;4993406;28;20069;-57
2021/04/03 06:55:13;;;;;;;8.32;5.75;;;10.70;65.50;;;;;;4994201;28;20034;-56
2021/04/03 06:57:40;;;;;;;;;;;10.70;65.60;;;;;;4993141;28;20049;-53
2021/04/03 07:00:08;;;;;;;7.32;5.05;;;10.60;65.50;;;;;;4986929;28;19909;-57
2021/04/03 07:02:47;;;;;;;7.07;5.50;;;10.70;65.80;;;;;;4981092;28;20038;-58
2021/04/03 07:05:14;;;;;;;7.70;5.78;;;10.70;65.80;;;;;;4989196;28;20096;-55
2021/04/03 07:07:44;;;;;;;5.97;4.75;;;10.70;65.80;;;;;;4992426;28;20564;-55
2021/04/03 07:10:12;;;;;;;6.47;4.93;;;10.70;65.70;;;;;;4990900;28;20031;-55
2021/04/03 07:12:39;;;;;;;5.65;4.22;;;10.70;65.50;;;;;;4990835;28;20113;-58
2021/04/03 07:15:06;;;;;;;6.30;4.82;;;10.70;65.50;;;;;;4995060;28;20215;-56
2021/04/03 07:17:35;;;;;;;7.03;5.32;;;10.70;65.50;;;;;;4991848;28;20034;-57
2021/04/03 07:20:01;;;;;;;7.35;5.43;;;10.80;65.50;;;;;;4990477;28;20195;-56
2021/04/03 07:22:28;;;;;;;6.82;4.88;;;10.80;65.30;;;;;;4986522;28;20113;-55
2021/04/03 07:24:54;;;;;;;5.85;4.57;;;10.70;65.30;;;;;;4993580;28;20022;-55
2021/04/03 07:27:22;;;;;;;6.43;4.72;;;10.80;65.50;;;;;;4992229;28;20511;-57
2021/04/03 07:29:50;;;;;;;5.82;4.25;;;10.80;65.50;;;;;;4991266;28;20026;-56
2021/04/03 07:32:48;;;;;;;5.22;4.43;;;10.80;65.00;;;;;;4991721;28;20034;-55
2021/04/03 07:35:15;;;;;;;6.75;4.15;;;10.80;65.00;;;;;;4986489;28;20045;-56
2021/04/03 07:37:41;;;;;;;6.40;4.47;;;10.80;65.00;;;;;;4992044;28;20061;-56
2021/04/03 07:40:11;;;;;;;5.97;4.63;;;10.80;65.00;;;;;;4990003;28;20026;-52
2021/04/03 07:42:39;;;;;;;4.97;4.40;;;10.80;64.80;;;;;;4988886;28;20524;-52
2021/04/03 07:45:26;;;;;;;5.22;4.22;;;10.80;64.90;;;;;;4992313;28;20045;-52
2021/04/03 07:47:51;;;;;;;5.13;4.03;;;10.80;65.30;;;;;;4990440;28;20026;-53
2021/04/03 07:50:40;;;;;;;6.40;3.97;;;10.80;64.60;;;;;;4990517;28;20057;-52
2021/04/03 07:53:06;;;;;;;5.18;3.80;;;10.80;64.10;;;;;;4986067;28;20037;-53
2021/04/03 07:55:35;;;;;;;4.32;3.50;;;10.80;64.00;;;;;;4990376;28;20034;-52
2021/04/03 07:58:23;;;;;;;5.35;3.55;;;10.80;63.70;;;;;;4989425;28;20080;-55
2021/04/03 08:00:49;;;;;;;6.05;4.57;;;10.80;63.60;;;;;;4987819;28;20046;-53
2021/04/03 08:03:29;;;;;;;7.38;5.20;;;10.80;63.30;;;;;;4992829;28;20105;-57
2021/04/03 08:06:06;;;;;;;6.32;3.85;;;10.70;62.90;;;;;;4993167;28;20081;-52
2021/04/03 08:08:33;;;;;;;5.13;3.92;;;10.70;62.80;;;;;;4989083;28;20030;-58
2021/04/03 08:11:05;;;;;;;4.85;3.53;;;10.70;62.50;;;;;;4992884;28;20033;-52
2021/04/03 08:13:32;;;;;;;4.60;3.40;;;10.70;62.50;;;;;;4989448;28;20083;-55
2021/04/03 08:16:00;;;;;;;6.05;3.75;;;10.70;62.30;;;;;;4990639;28;20121;-55
2021/04/03 08:18:29;;;;;;;4.70;3.25;;;10.60;62.00;;;;;;4991290;28;20037;-54
2021/04/03 08:20:55;;;;;;;5.10;3.35;;;10.60;61.80;;;;;;4988672;28;20041;-55
2021/04/03 08:23:40;;;;;;;3.80;3.40;;;10.60;61.70;;;;;;4989751;28;20474;-57
2021/04/03 08:26:06;;;;;;;6.10;3.55;;;10.60;61.30;;;;;;4986181;28;20031;-56
2021/04/03 08:28:33;;;;;;;5.22;3.25;;;10.60;61.50;;;;;;4987070;28;20036;-56
2021/04/03 08:31:13;;;;;;;4.07;2.90;;;10.60;61.30;;;;;;4989060;28;20602;-57
2021/04/03 08:33:38;;;;;;;3.35;3.05;;;10.60;60.80;;;;;;4990749;28;20030;-57
2021/04/03 08:36:13;;;;;;;2.97;2.60;;;10.60;60.60;;;;;;4989911;28;21449;-56
2021/04/03 08:38:43;;;;;;;4.25;3.00;;;10.70;60.60;;;;;;4987002;28;20417;-56
2021/04/03 08:41:10;;;;;;;5.35;2.80;;;10.70;60.30;;;;;;4990792;28;20029;-56
2021/04/03 08:43:36;;;;;;;3.70;2.72;;;10.70;59.70;;;;;;4987398;28;20029;-56
2021/04/03 08:46:08;;;;;;;3.55;2.40;;;10.70;59.50;;;;;;4989203;28;20038;-57
2021/04/03 08:48:37;;;;;;;3.72;2.40;;;10.70;59.40;;;;;;4982215;28;20046;-57
2021/04/03 08:51:06;;;;;;;3.13;2.70;;;10.80;59.30;;;;;;4991354;28;20066;-55
2021/04/03 08:53:42;;;;;;;4.15;2.85;;;10.80;59.00;;;;;;4992693;28;20557;-56
2021/04/03 08:56:09;;;;;;;3.28;2.63;;;10.80;58.80;;;;;;4986721;28;20051;-56
2021/04/03 08:58:36;;;;;;;2.80;2.50;;;10.80;58.70;;;;;;4990612;28;20490;-56
2021/04/03 09:01:04;;;;;;;2.60;2.40;;;10.80;58.50;;;;;;4985785;28;20026;-54
2021/04/03 09:03:31;;;;;;;3.15;2.47;;;10.90;58.40;;;;;;4983337;28;21006;-57
2021/04/03 09:05:57;;;;;;;3.70;3.20;;;10.90;58.40;;;;;;4981931;28;20030;-57
2021/04/03 09:08:24;;;;;;;3.45;2.30;;;10.90;58.10;;;;;;4983728;28;20049;-56
2021/04/03 09:10:57;;;;;;;2.78;2.50;;;10.90;57.70;;;;;;4984164;28;20026;-56
2021/04/03 09:13:30;;;;;;;2.75;2.50;;;10.90;57.10;;;;;;4987232;28;20513;-58
2021/04/03 09:16:06;;;;;;;4.22;2.65;;;11.00;56.80;;;;;;4985094;28;20034;-55
2021/04/03 09:18:32;;;;;;;2.63;2.28;;;11.00;56.80;;;;;;4983690;28;20125;-57
2021/04/03 09:20:57;;;;;;;2.30;2.10;;;11.10;57.20;;;;;;4984254;28;20121;-56
2021/04/03 09:23:24;;;;;;;2.13;2.00;;;11.10;57.00;;;;;;4985647;28;20134;-55
2021/04/03 09:26:03;;;;;;;2.20;2.00;;;11.20;56.70;;;;;;4981298;28;20081;-55
2021/04/03 09:28:42;;;;;;;2.92;2.15;;;11.30;56.50;;;;;;4986521;28;20026;-53
2021/04/03 09:31:09;;;;;;;3.35;2.83;;;11.30;56.20;;;;;;4988185;28;20027;-56
2021/04/03 09:33:46;;;;;;;4.45;2.83;;;11.40;55.80;;;;;;4986767;28;20033;-57
2021/04/03 09:36:15;;;;;;;4.03;2.60;;;11.50;55.70;;;;;;4986440;28;20474;-53
2021/04/03 09:38:41;;;;;;;2.83;2.10;;;11.60;55.40;;;;;;4983572;28;20073;-56
2021/04/03 09:41:27;;;;;;;2.50;2.33;;;11.60;55.10;;;;;;4990109;28;20026;-57
2021/04/03 09:43:54;;;;;;;3.17;2.13;;;11.70;54.80;;;;;;4988404;28;20025;-56
2021/04/03 09:46:21;;;;;;;2.08;1.88;;;11.70;54.60;;;;;;4990164;28;20372;-57
2021/04/03 09:48:47;;;;;;;2.40;2.08;;;11.70;54.50;;;;;;4987171;28;20032;-57
2021/04/03 09:51:13;;;;;;;2.63;2.05;;;11.70;54.30;;;;;;4987737;28;20052;-57
2021/04/03 09:53:39;;;;;;;2.00;1.90;;;11.70;54.30;;;;;;4984971;28;20030;-55
2021/04/03 09:56:06;;;;;;;2.28;1.92;;;11.70;54.50;;;;;;4986795;28;20031;-54
2021/04/03 09:58:32;;;;;;;3.20;1.80;;;11.80;54.20;;;;;;4985812;28;20030;-57
2021/04/03 10:00:58;;;;;;;1.92;1.63;;;11.80;54.90;;;;;;4986524;28;20448;-57
2021/04/03 10:03:24;;;;;;;3.20;2.00;;;11.80;54.40;;;;;;4985006;28;20038;-56
2021/04/03 10:05:50;;;;;;;3.08;2.10;;;11.90;54.20;;;;;;4986939;28;20359;-54
2021/04/03 10:08:15;;;;;;;3.40;2.33;;;11.90;53.90;;;;;;4991571;28;20109;-56
2021/04/03 10:10:42;;;;;;;2.53;2.10;;;11.90;53.50;;;;;;4990288;28;20066;-56
2021/04/03 10:13:09;;;;;;;3.22;2.45;;;11.90;53.60;;;;;;4990437;28;20466;-55
2021/04/03 10:15:37;;;;;;;2.10;1.90;;;11.90;53.30;;;;;;4988818;28;20546;-55
2021/04/03 10:18:04;;;;;;;2.03;1.90;;;12.00;53.20;;;;;;4984413;28;20121;-56
2021/04/03 10:20:31;;;;;;;2.15;1.90;;;12.00;53.10;;;;;;4986283;28;20369;-57
2021/04/03 10:22:56;;;;;;;1.63;1.52;;;12.10;53.00;;;;;;4983807;28;20425;-56
2021/04/03 10:25:22;;;;;;;2.35;2.10;;;12.10;52.70;;;;;;4985711;28;20022;-57
2021/04/03 10:27:48;;;;;;;2.60;2.40;;;12.10;52.50;;;;;;4980615;28;20038;-56
2021/04/03 10:30:14;;;;;;;2.90;2.00;;;12.10;52.40;;;;;;4985578;28;20620;-56
2021/04/03 10:32:40;;;;;;;2.63;2.22;;;12.10;52.30;;;;;;4985513;28;20132;-55
2021/04/03 10:35:06;;;;;;;3.25;2.22;;;12.10;52.20;;;;;;4980612;28;20069;-57
2021/04/03 10:37:32;;;;;;;2.33;2.13;;;12.10;52.00;;;;;;4981099;28;20034;-57
2021/04/03 10:39:58;;;;;;;2.20;2.00;;;12.10;52.00;;;;;;4987875;28;20033;-55
2021/04/03 10:42:24;;;;;;;2.05;1.95;;;12.10;52.10;;;;;;4984332;28;20022;-57
2021/04/03 10:44:49;;;;;;;1.90;1.80;;;12.10;52.60;;;;;;4988134;28;20161;-56
2021/04/03 10:47:15;;;;;;;2.30;2.10;;;12.10;52.60;;;;;;4985463;28;20026;-57
2021/04/03 10:49:41;;;;;;;2.17;1.98;;;12.00;53.00;;;;;;4987281;28;20034;-55
2021/04/03 10:52:06;;;;;;;4.35;2.30;;;12.00;53.20;;;;;;4989089;28;20180;-56
2021/04/03 10:54:32;;;;;;;2.78;2.00;;;12.00;53.30;;;;;;4982780;28;20438;-57
2021/04/03 10:56:58;;;;;;;1.95;1.80;;;12.00;53.20;;;;;;4989110;28;20034;-56
2021/04/03 10:59:23;;;;;;;2.20;2.00;;;12.00;52.80;;;;;;4990859;28;20031;-57
2021/04/03 11:01:49;;;;;;;2.40;2.20;;;12.00;52.30;;;;;;4989653;28;20250;-56
2021/04/03 11:04:15;;;;;;;3.80;1.88;;;12.00;51.90;;;;;;4987913;28;20030;-55
2021/04/03 11:06:41;;;;;;;2.17;2.03;;;12.00;51.60;;;;;;4990798;28;20040;-56
2021/04/03 11:09:06;;;;;;;2.40;2.20;;;12.00;51.30;;;;;;4996514;28;20454;-57
2021/04/03 11:11:32;;;;;;;2.50;2.25;;;11.90;51.20;;;;;;4993916;28;20042;-57
2021/04/03 11:13:58;;;;;;;3.42;2.40;;;12.00;51.00;;;;;;4988253;28;20038;-57
2021/04/03 11:16:26;;;;;;;4.47;2.35;;;12.00;51.30;;;;;;4988230;28;20034;-54
2021/04/03 11:18:53;;;;;;;3.90;2.60;;;12.00;50.70;;;;;;4988780;28;20034;-56
2021/04/03 11:21:18;;;;;;;2.88;2.50;;;12.00;50.30;;;;;;4987065;28;20490;-57
2021/04/03 11:23:44;;;;;;;4.45;3.30;;;12.00;50.30;;;;;;4993952;28;20041;-55
2021/04/03 11:26:10;;;;;;;3.15;2.60;;;12.00;50.20;;;;;;4990607;28;20030;-56
2021/04/03 11:28:35;;;;;;;2.65;2.40;;;12.00;50.20;;;;;;4988509;28;20113;-57
2021/04/03 11:31:01;;;;;;;2.97;2.30;;;12.00;49.90;;;;;;4989281;28;20036;-54
2021/04/03 11:33:27;;;;;;;2.63;1.98;;;12.00;49.70;;;;;;4986467;28;20066;-57
2021/04/03 11:35:52;;;;;;;2.35;2.00;;;12.00;49.60;;;;;;4987746;28;20026;-57
2021/04/03 11:38:20;;;;;;;2.03;1.90;;;12.00;49.50;;;;;;4984391;28;20157;-57
2021/04/03 11:40:45;;;;;;;1.85;1.75;;;12.10;49.20;;;;;;4986699;28;20058;-55
2021/04/03 11:43:11;;;;;;;2.65;2.45;;;12.10;49.30;;;;;;4985798;28;20498;-56
2021/04/03 11:45:37;;;;;;;3.85;2.55;;;12.10;49.40;;;;;;4981574;28;20406;-56
2021/04/03 11:48:03;;;;;;;2.72;2.50;;;12.10;49.40;;;;;;4980293;28;20379;-57
2021/04/03 11:50:28;;;;;;;2.75;2.40;;;12.20;49.30;;;;;;4984384;28;20081;-56
2021/04/03 11:52:55;;;;;;;1.90;1.80;;;12.20;48.90;;;;;;4982309;28;20044;-56
2021/04/03 11:55:22;;;;;;;2.95;2.30;;;12.30;48.50;;;;;;4986233;28;20129;-57
2021/04/03 11:57:47;;;;;;;2.38;2.17;;;12.30;48.40;;;;;;4986911;28;20041;-56
2021/04/03 12:00:14;;;;;;;2.55;2.35;;;12.40;48.10;;;;;;4987595;28;20033;-57
2021/04/03 12:02:40;;;;;;;3.15;2.20;;;12.50;47.80;;;;;;4991133;28;20079;-56
2021/04/03 12:05:07;;;;;;;2.33;2.08;;;12.50;47.60;;;;;;4995977;28;20097;-56
2021/04/03 12:07:42;;;;;;;3.00;2.17;;;12.50;47.80;;;;;;4992216;28;20053;-55
2021/04/03 12:10:11;;;;;;;4.05;2.53;;;12.60;47.80;;;;;;4994390;28;20100;-55
2021/04/03 12:12:38;;;;;;;3.95;2.67;;;12.60;47.80;;;;;;4992678;28;20114;-58
2021/04/03 12:15:09;;;;;;;3.45;2.55;;;12.60;47.80;;;;;;4993967;28;21274;-57
2021/04/03 12:17:36;;;;;;;2.50;2.30;;;12.60;47.70;;;;;;4992594;28;20027;-57
2021/04/03 12:20:05;;;;;;;3.00;2.45;;;12.60;47.60;;;;;;4994872;28;20386;-56
2021/04/03 12:22:31;;;;;;;2.55;2.35;;;12.60;47.30;;;;;;4989656;28;20056;-55
2021/04/03 12:24:57;;;;;;;2.58;2.30;;;12.60;47.40;;;;;;4996852;28;20494;-55
2021/04/03 12:27:23;;;;;;;2.45;2.13;;;12.60;47.10;;;;;;4994248;28;20022;-57
2021/04/03 12:29:48;;;;;;;3.30;2.40;;;12.60;46.90;;;;;;4994609;28;20096;-55
2021/04/03 12:32:14;;;;;;;2.63;2.17;;;12.60;46.30;;;;;;4995737;28;20474;-56
2021/04/03 12:34:40;;;;;;;2.58;2.38;;;12.60;46.00;;;;;;4991158;28;20044;-57
2021/04/03 12:37:06;;;;;;;3.38;2.50;;;12.50;45.90;;;;;;4991344;28;20367;-57
2021/04/03 12:39:31;;;;;;;2.92;1.95;;;12.60;46.10;;;;;;4988382;28;20449;-53
2021/04/03 12:41:57;;;;;;;3.70;2.28;;;12.60;46.00;;;;;;4993285;28;20029;-57
2021/04/03 12:44:23;;;;;;;1.90;1.80;;;12.60;45.60;;;;;;4993454;28;20054;-57
2021/04/03 12:46:49;;;;;;;1.98;1.80;;;12.60;46.20;;;;;;4992442;28;20085;-55
2021/04/03 12:49:14;;;;;;;2.60;2.00;;;12.60;45.50;;;;;;4986311;28;20030;-57
2021/04/03 12:51:40;;;;;;;2.40;1.90;;;12.60;45.40;;;;;;4993081;28;20049;-57
2021/04/03 12:54:06;;;;;;;2.75;2.00;;;12.60;45.30;;;;;;4989408;28;20490;-57